createdAt,value
2019-01-02T00:01:41.024Z,55.72
2019-01-02T00:04:43.419Z,55.98
2019-01-02T00:07:45.875Z,56.03
2019-01-02T00:10:47.865Z,56.08
2019-01-02T00:13:49.799Z,55.94
2019-01-02T00:16:51.712Z,55.65
2019-01-02T00:19:53.566Z,55.63
2019-01-02T00:22:55.575Z,55.61
2019-01-02T00:25:57.513Z,55.61
2019-01-02T00:28:59.482Z,55.40
2019-01-02T00:32:02.069Z,55.68
2019-01-02T00:35:06.305Z,56.00
2019-01-02T00:38:08.481Z,56.35
2019-01-02T00:41:10.403Z,56.52
2019-01-02T00:44:12.371Z,56.62
2019-01-02T00:47:14.290Z,56.83
2019-01-02T00:50:16.209Z,56.80
2019-01-02T00:53:18.319Z,57.01
2019-01-02T00:56:20.658Z,57.24
2019-01-02T00:59:23.106Z,57.04
2019-01-02T01:02:24.986Z,57.51
2019-01-02T01:05:27.026Z,57.58
2019-01-02T01:08:28.906Z,58.01
2019-01-02T01:11:31.334Z,58.70
2019-01-02T01:14:33.910Z,59.18
2019-01-02T01:17:35.892Z,59.37
2019-01-02T01:20:37.839Z,59.89
2019-01-02T01:23:39.866Z,60.47
2019-01-02T01:26:41.763Z,61.15
2019-01-02T01:29:43.721Z,61.70
2019-01-02T01:32:45.648Z,61.89
2019-01-02T01:35:47.587Z,61.74
2019-01-02T01:38:49.534Z,61.83
2019-01-02T01:41:51.577Z,61.71
2019-01-02T01:44:53.514Z,62.20
2019-01-02T01:47:55.375Z,62.42
2019-01-02T01:50:57.234Z,62.59
2019-01-02T01:53:59.286Z,62.68
2019-01-02T01:57:01.541Z,63.01
2019-01-02T02:00:07.764Z,62.95
2019-01-02T02:03:11.265Z,62.85
2019-01-02T02:06:14.307Z,62.61
2019-01-02T02:09:16.575Z,62.33
2019-01-02T02:12:18.937Z,62.35
2019-01-02T02:15:21.061Z,62.51
2019-01-02T02:18:23.298Z,62.28
2019-01-02T02:21:25.533Z,61.92
2019-01-02T02:24:28.225Z,61.86
2019-01-02T02:27:30.739Z,61.59
2019-01-02T02:30:33.206Z,61.33
2019-01-02T02:33:35.166Z,61.34
2019-01-02T02:36:37.665Z,61.09
2019-01-02T02:39:40.066Z,61.13
2019-01-02T02:42:42.354Z,60.86
2019-01-02T02:45:45.304Z,60.78
2019-01-02T02:48:47.637Z,60.65
2019-01-02T02:51:50.031Z,60.58
2019-01-02T02:54:52.795Z,60.38
2019-01-02T02:57:55.807Z,60.07
2019-01-02T03:00:57.784Z,59.86
2019-01-02T03:03:59.963Z,59.71
2019-01-02T03:07:02.623Z,59.48
2019-01-02T03:10:10.446Z,59.26
2019-01-02T03:13:12.794Z,59.10
2019-01-02T03:16:14.956Z,58.85
2019-01-02T03:19:17.325Z,58.56
2019-01-02T03:22:19.729Z,58.51
2019-01-02T03:25:21.901Z,58.51
2019-01-02T03:28:24.493Z,58.15
2019-01-02T03:31:26.910Z,58.19
2019-01-02T03:34:29.299Z,58.04
2019-01-02T03:37:31.227Z,57.90
2019-01-02T03:40:33.079Z,57.77
2019-01-02T03:43:35.010Z,57.73
2019-01-02T03:46:36.890Z,57.60
2019-01-02T03:49:38.934Z,57.38
2019-01-02T03:52:40.867Z,57.34
2019-01-02T03:55:43.014Z,57.34
2019-01-02T03:58:44.862Z,57.31
2019-01-02T04:01:46.847Z,57.26
2019-01-02T04:04:48.814Z,57.29
2019-01-02T04:08:00.261Z,57.23
2019-01-02T04:11:02.217Z,57.26
2019-01-02T04:14:04.149Z,57.49
2019-01-02T04:17:06.111Z,57.41
2019-01-02T04:20:08.096Z,57.33
2019-01-02T04:23:10.074Z,57.26
2019-01-02T04:26:12.108Z,57.46
2019-01-02T04:29:13.980Z,57.48
2019-01-02T04:32:15.989Z,57.28
2019-01-02T04:35:18.946Z,57.27
2019-01-02T04:38:20.972Z,57.25
2019-01-02T04:41:22.814Z,56.94
2019-01-02T04:44:24.769Z,56.93
2019-01-02T04:47:26.778Z,56.86
2019-01-02T04:50:28.696Z,56.67
2019-01-02T04:53:30.640Z,56.64
2019-01-02T04:56:32.721Z,56.50
2019-01-02T04:59:34.671Z,56.50
2019-01-02T05:02:36.624Z,56.19
2019-01-02T05:05:38.504Z,56.13
2019-01-02T05:08:41.030Z,56.08
2019-01-02T05:11:42.914Z,56.11
2019-01-02T05:14:44.859Z,56.02
2019-01-02T05:17:46.794Z,55.93
2019-01-02T05:20:48.671Z,55.82
2019-01-02T05:23:50.592Z,55.90
2019-01-02T05:26:52.574Z,55.89
2019-01-02T05:29:54.513Z,55.83
2019-01-02T05:32:56.401Z,55.61
2019-01-02T05:35:58.362Z,55.56
2019-01-02T05:39:00.278Z,55.54
2019-01-02T05:42:02.177Z,55.23
2019-01-02T05:45:06.018Z,54.87
2019-01-02T05:48:08.014Z,54.87
2019-01-02T05:51:09.890Z,54.73
2019-01-02T05:54:11.853Z,54.46
2019-01-02T05:57:13.834Z,54.42
2019-01-02T06:00:16.015Z,54.32
2019-01-02T06:03:17.911Z,54.33
2019-01-02T06:06:19.841Z,54.35
2019-01-02T06:09:21.778Z,54.12
2019-01-02T06:12:23.876Z,53.94
2019-01-02T06:15:25.865Z,54.05
2019-01-02T06:18:27.770Z,54.11
2019-01-02T06:21:29.672Z,54.00
2019-01-02T06:24:31.663Z,53.91
2019-01-02T06:27:33.701Z,54.02
2019-01-02T06:30:35.655Z,53.99
2019-01-02T06:33:37.612Z,54.00
2019-01-02T06:36:39.544Z,54.19
2019-01-02T06:39:41.483Z,54.26
2019-01-02T06:42:43.483Z,54.20
2019-01-02T06:45:45.321Z,54.28
2019-01-02T06:48:47.262Z,54.24
2019-01-02T06:51:49.236Z,54.33
2019-01-02T06:54:51.535Z,54.31
2019-01-02T06:57:53.802Z,54.43
2019-01-02T07:00:55.755Z,54.41
2019-01-02T07:03:57.707Z,54.15
2019-01-02T07:06:59.650Z,54.00
2019-01-02T07:10:02.382Z,53.81
2019-01-02T07:13:04.398Z,53.50
2019-01-02T07:16:06.307Z,53.48
2019-01-02T07:19:08.309Z,53.16
2019-01-02T07:22:10.223Z,53.14
2019-01-02T07:25:12.159Z,53.05
2019-01-02T07:28:14.235Z,52.92
2019-01-02T07:31:16.356Z,52.81
2019-01-02T07:34:19.336Z,52.86
2019-01-02T07:37:51.978Z,52.79
2019-01-02T07:41:06.696Z,52.94
2019-01-02T07:44:21.366Z,53.44
2019-01-02T07:47:35.967Z,53.64
2019-01-02T07:50:47.641Z,54.00
2019-01-02T07:54:22.305Z,54.72
2019-01-02T07:57:31.952Z,55.23
2019-01-02T08:00:37.619Z,56.42
2019-01-02T08:03:49.152Z,56.89
2019-01-02T08:07:03.566Z,57.35
2019-01-02T08:10:11.926Z,58.21
2019-01-02T08:13:29.653Z,58.29
2019-01-02T08:16:50.200Z,58.67
2019-01-02T08:20:18.624Z,59.43
2019-01-02T08:23:41.189Z,59.50
2019-01-02T08:27:11.283Z,59.84
2019-01-02T08:30:19.885Z,60.20
2019-01-02T08:34:00.451Z,60.63
2019-01-02T08:37:22.751Z,60.61
2019-01-02T08:40:49.186Z,61.14
2019-01-02T08:43:55.141Z,61.33
2019-01-02T08:47:35.860Z,61.43
2019-01-02T08:50:41.399Z,61.42
2019-01-02T08:53:52.634Z,61.55
2019-01-02T08:57:07.303Z,61.41
2019-01-02T09:00:27.723Z,61.32
2019-01-02T09:03:42.123Z,61.03
2019-01-02T09:07:02.951Z,60.71
2019-01-02T09:10:30.916Z,60.85
2019-01-02T09:14:01.448Z,61.07
2019-01-02T09:17:12.967Z,61.20
2019-01-02T09:20:27.342Z,61.37
2019-01-02T09:23:59.997Z,61.35
2019-01-02T09:27:20.626Z,61.30
2019-01-02T09:30:31.817Z,61.48
2019-01-02T09:33:43.346Z,61.46
2019-01-02T09:37:22.315Z,61.72
2019-01-02T09:40:42.713Z,61.66
2019-01-02T09:43:51.108Z,61.63
2019-01-02T09:47:11.479Z,61.41
2019-01-02T09:50:26.019Z,61.31
2019-01-02T09:53:34.545Z,61.37
2019-01-02T09:56:46.229Z,61.30
2019-01-02T10:00:18.908Z,60.98
2019-01-02T10:03:30.474Z,60.92
2019-01-02T10:06:50.981Z,61.32
2019-01-02T10:10:08.690Z,61.36
2019-01-02T10:13:22.796Z,61.53
2019-01-02T10:16:28.357Z,61.43
2019-01-02T10:19:43.028Z,61.17
2019-01-02T10:23:03.836Z,60.75
2019-01-02T10:26:12.121Z,60.46
2019-01-02T10:29:23.382Z,59.55
2019-01-02T10:32:47.342Z,58.71
2019-01-02T10:36:01.814Z,58.22
2019-01-02T10:39:27.029Z,57.93
2019-01-02T10:42:38.336Z,57.81
2019-01-02T10:46:11.388Z,57.68
2019-01-02T10:49:37.986Z,57.01
2019-01-02T10:52:49.548Z,56.63
2019-01-02T10:56:13.279Z,56.60
2019-01-02T10:59:24.821Z,56.42
2019-01-02T11:02:33.613Z,55.78
2019-01-02T11:05:59.217Z,55.91
2019-01-02T11:09:38.342Z,55.63
2019-01-02T11:12:46.635Z,55.90
2019-01-02T11:15:58.120Z,56.14
2019-01-02T11:19:19.068Z,55.43
2019-01-02T11:22:24.652Z,55.71
2019-01-02T11:25:57.585Z,55.51
2019-01-02T11:29:18.393Z,55.32
2019-01-02T11:32:39.226Z,54.66
2019-01-02T11:35:57.183Z,54.38
2019-01-02T11:39:20.540Z,54.39
2019-01-02T11:42:42.783Z,53.83
2019-01-02T11:45:45.003Z,53.66
2019-01-02T11:48:47.063Z,52.94
2019-01-02T11:51:49.188Z,52.91
2019-01-02T11:54:51.699Z,52.77
2019-01-02T11:57:53.910Z,52.90
2019-01-02T12:00:55.946Z,52.60
2019-01-02T12:03:58.297Z,52.44
2019-01-02T12:07:00.250Z,52.39
2019-01-02T12:10:05.423Z,52.61
2019-01-02T12:13:07.400Z,51.94
2019-01-02T12:16:09.378Z,51.57
2019-01-02T12:19:12.694Z,51.50
2019-01-02T12:22:14.661Z,51.17
2019-01-02T12:25:16.627Z,51.37
2019-01-02T12:28:18.623Z,51.69
2019-01-02T12:31:20.741Z,51.49
2019-01-02T12:34:22.705Z,51.44
2019-01-02T12:37:25.012Z,51.17
2019-01-02T12:40:27.117Z,51.46
2019-01-02T12:43:29.113Z,51.51
2019-01-02T12:46:31.110Z,51.18
2019-01-02T12:49:33.151Z,50.89
2019-01-02T12:52:35.201Z,50.68
2019-01-02T12:55:37.131Z,50.50
2019-01-02T12:58:39.297Z,50.50
2019-01-02T13:01:45.019Z,51.04
2019-01-02T13:05:07.319Z,50.92
2019-01-02T13:08:29.397Z,50.14
2019-01-02T13:11:35.424Z,50.91
2019-01-02T13:14:56.185Z,51.54
2019-01-02T13:18:10.964Z,51.76
2019-01-02T13:21:16.630Z,51.70
2019-01-02T13:24:25.103Z,51.27
2019-01-02T13:27:40.041Z,50.93
2019-01-02T13:30:45.728Z,50.94
2019-01-02T13:34:03.513Z,50.96
2019-01-02T13:37:14.946Z,50.89
2019-01-02T13:40:46.507Z,50.91
2019-01-02T13:44:01.152Z,50.99
2019-01-02T13:47:16.078Z,51.13
2019-01-02T13:50:31.023Z,51.18
2019-01-02T13:53:33.403Z,51.07
2019-01-02T13:56:35.317Z,51.00
2019-01-02T13:59:37.274Z,51.11
2019-01-02T14:02:39.229Z,50.76
2019-01-02T14:05:41.390Z,50.89
2019-01-02T14:08:43.432Z,50.85
2019-01-02T14:11:45.739Z,50.96
2019-01-02T14:14:47.859Z,50.69
2019-01-02T14:17:50.019Z,50.56
2019-01-02T14:20:52.259Z,50.48
2019-01-02T14:23:54.392Z,50.72
2019-01-02T14:26:56.559Z,50.74
2019-01-02T14:29:58.667Z,50.60
2019-01-02T14:33:00.806Z,50.59
2019-01-02T14:36:02.702Z,50.40
2019-01-02T14:39:06.438Z,50.98
2019-01-02T14:42:08.663Z,51.17
2019-01-02T14:45:10.753Z,51.22
2019-01-02T14:48:12.921Z,51.12
2019-01-02T14:51:14.936Z,50.88
2019-01-02T14:54:17.031Z,50.81
2019-01-02T14:57:18.970Z,50.88
2019-01-02T15:00:20.989Z,51.18
2019-01-02T15:03:22.956Z,51.29
2019-01-02T15:06:24.917Z,51.17
2019-01-02T15:09:26.883Z,51.20
2019-01-02T15:12:28.848Z,50.88
2019-01-02T15:15:30.792Z,50.35
2019-01-02T15:18:32.729Z,50.34
2019-01-02T15:21:34.667Z,50.26
2019-01-02T15:24:36.643Z,50.37
2019-01-02T15:27:38.585Z,50.44
2019-01-02T15:30:40.562Z,50.30
2019-01-02T15:33:42.522Z,49.94
2019-01-02T15:36:44.395Z,50.07
2019-01-02T15:39:46.327Z,50.10
2019-01-02T15:42:48.346Z,50.16
2019-01-02T15:45:50.267Z,49.70
2019-01-02T15:48:53.837Z,50.04
2019-01-02T15:51:56.105Z,50.00
2019-01-02T15:54:58.155Z,49.97
2019-01-02T15:58:00.054Z,49.77
2019-01-02T16:01:04.156Z,49.55
2019-01-02T16:04:06.081Z,49.36
2019-01-02T16:07:08.038Z,49.47
2019-01-02T16:10:09.912Z,49.10
2019-01-02T16:13:11.921Z,48.86
2019-01-02T16:16:13.915Z,47.53
2019-01-02T16:19:15.921Z,47.50
2019-01-02T16:22:18.008Z,47.50
2019-01-02T16:25:19.972Z,46.70
2019-01-02T16:28:21.931Z,46.94
2019-01-02T16:31:23.893Z,47.22
2019-01-02T16:34:25.930Z,47.25
2019-01-02T16:37:27.793Z,47.10
2019-01-02T16:40:29.797Z,46.96
2019-01-02T16:43:31.690Z,47.31
2019-01-02T16:46:33.714Z,47.28
2019-01-02T16:49:35.628Z,47.63
2019-01-02T16:52:37.670Z,47.71
2019-01-02T16:55:39.608Z,47.97
2019-01-02T16:58:41.675Z,48.14
2019-01-02T17:01:43.617Z,48.55
2019-01-02T17:04:45.585Z,48.66
2019-01-02T17:07:47.514Z,48.84
2019-01-02T17:10:49.465Z,49.01
2019-01-02T17:13:51.414Z,48.54
2019-01-02T17:16:53.375Z,47.82
2019-01-02T17:19:55.304Z,47.95
2019-01-02T17:22:57.318Z,48.12
2019-01-02T17:25:59.239Z,48.15
2019-01-02T17:29:02.270Z,48.54
2019-01-02T17:32:04.190Z,48.25
2019-01-02T17:35:06.178Z,48.37
2019-01-02T17:38:08.105Z,47.95
2019-01-02T17:41:10.298Z,47.74
2019-01-02T17:44:13.300Z,47.75
2019-01-02T17:47:15.294Z,48.05
2019-01-02T17:50:17.229Z,48.51
2019-01-02T17:53:19.245Z,48.92
2019-01-02T17:56:21.107Z,48.51
2019-01-02T17:59:23.116Z,48.58
2019-01-02T18:02:25.107Z,48.57
2019-01-02T18:05:27.174Z,48.18
2019-01-02T18:08:29.515Z,48.48
2019-01-02T18:11:31.419Z,48.48
2019-01-02T18:14:33.445Z,48.85
2019-01-02T18:17:35.864Z,49.15
2019-01-02T18:20:37.765Z,49.51
2019-01-02T18:23:39.786Z,49.89
2019-01-02T18:26:41.725Z,50.05
2019-01-02T18:29:43.654Z,50.24
2019-01-02T18:32:45.868Z,50.28
2019-01-02T18:35:48.056Z,50.57
2019-01-02T18:38:49.964Z,50.70
2019-01-02T18:41:51.955Z,50.87
2019-01-02T18:44:56.403Z,50.78
2019-01-02T18:47:58.361Z,50.88
2019-01-02T18:51:01.682Z,50.88
2019-01-02T18:54:03.674Z,50.74
2019-01-02T18:57:05.621Z,50.84
2019-01-02T19:00:10.528Z,50.85
2019-01-02T19:03:14.103Z,51.09
2019-01-02T19:06:16.354Z,51.30
2019-01-02T19:09:18.580Z,51.59
2019-01-02T19:12:22.750Z,51.88
2019-01-02T19:15:24.848Z,51.66
2019-01-02T19:18:26.830Z,51.87
2019-01-02T19:21:28.742Z,51.70
2019-01-02T19:24:30.747Z,51.64
2019-01-02T19:27:32.631Z,51.51
2019-01-02T19:30:34.592Z,51.26
2019-01-02T19:33:36.486Z,51.29
2019-01-02T19:36:38.444Z,51.23
2019-01-02T19:39:40.363Z,51.14
2019-01-02T19:42:42.361Z,50.96
2019-01-02T19:45:44.267Z,50.86
2019-01-02T19:48:47.532Z,50.90
2019-01-02T19:51:49.459Z,50.67
2019-01-02T19:54:55.743Z,50.72
2019-01-02T19:57:57.615Z,50.72
2019-01-02T20:00:59.892Z,50.69
2019-01-02T20:04:02.994Z,50.55
2019-01-02T20:07:04.892Z,50.57
2019-01-02T20:10:07.498Z,50.63
2019-01-02T20:13:11.187Z,50.79
2019-01-02T20:16:13.511Z,50.89
2019-01-02T20:19:15.876Z,50.85
2019-01-02T20:22:19.423Z,50.97
2019-01-02T20:25:23.772Z,50.82
2019-01-02T20:28:26.047Z,50.63
2019-01-02T20:31:27.971Z,50.56
2019-01-02T20:34:30.332Z,50.41
2019-01-02T20:37:32.304Z,50.39
2019-01-02T20:40:35.863Z,50.41
2019-01-02T20:43:37.803Z,50.43
2019-01-02T20:46:40.320Z,50.74
2019-01-02T20:49:43.311Z,50.76
2019-01-02T20:52:46.939Z,50.76
2019-01-02T20:55:48.935Z,50.76
2019-01-02T20:58:52.930Z,51.13
2019-01-02T21:01:56.192Z,51.37
2019-01-02T21:04:58.499Z,51.12
2019-01-02T21:08:02.647Z,51.05
2019-01-02T21:11:04.574Z,51.00
2019-01-02T21:14:06.568Z,50.95
2019-01-02T21:17:10.597Z,50.99
2019-01-02T21:20:12.579Z,50.85
2019-01-02T21:23:14.486Z,50.61
2019-01-02T21:26:16.960Z,50.72
2019-01-02T21:29:18.911Z,50.69
2019-01-02T21:32:20.926Z,50.62
2019-01-02T21:35:23.162Z,50.45
2019-01-02T21:38:25.431Z,50.64
2019-01-02T21:41:27.347Z,50.49
2019-01-02T21:44:29.287Z,50.59
2019-01-02T21:47:31.225Z,50.42
2019-01-02T21:50:33.153Z,50.61
2019-01-02T21:53:35.110Z,50.75
2019-01-02T21:56:37.060Z,50.81
2019-01-02T21:59:38.992Z,50.79
2019-01-02T22:02:40.980Z,50.77
2019-01-02T22:05:42.883Z,50.77
2019-01-02T22:08:44.876Z,50.69
2019-01-02T22:11:46.803Z,50.46
2019-01-02T22:14:48.847Z,50.39
2019-01-02T22:17:51.853Z,50.36
2019-01-02T22:20:53.797Z,50.34
2019-01-02T22:23:55.716Z,50.11
2019-01-02T22:26:57.669Z,49.76
2019-01-02T22:29:59.588Z,49.62
2019-01-02T22:33:01.559Z,49.68
2019-01-02T22:36:03.495Z,49.36
2019-01-02T22:39:05.876Z,49.01
2019-01-02T22:42:07.789Z,48.61
2019-01-02T22:45:09.684Z,48.45
2019-01-02T22:48:11.618Z,47.88
2019-01-02T22:51:14.442Z,48.01
2019-01-02T22:54:16.318Z,47.78
2019-01-02T22:57:18.332Z,47.62
2019-01-02T23:00:37.189Z,46.92
2019-01-02T23:03:52.912Z,47.30
2019-01-02T23:06:59.255Z,46.68
2019-01-02T23:10:08.980Z,46.77
2019-01-02T23:13:15.560Z,47.04
2019-01-02T23:16:35.920Z,46.97
2019-01-02T23:19:56.844Z,47.04
2019-01-02T23:23:00.594Z,46.84
2019-01-02T23:26:10.108Z,46.73
2019-01-02T23:29:30.479Z,46.56
2019-01-02T23:32:40.362Z,46.05
2019-01-02T23:35:46.672Z,46.32
2019-01-02T23:38:50.379Z,46.28
2019-01-02T23:42:06.278Z,46.23
2019-01-02T23:45:16.284Z,45.69
2019-01-02T23:48:23.081Z,45.81
2019-01-02T23:51:26.874Z,45.58
2019-01-02T23:54:39.937Z,45.65
2019-01-02T23:57:46.533Z,45.33
